createdAt,value
2022-08-08T00:10:01.962Z,100.00
2022-08-08T00:12:38.493Z,100.00
2022-08-08T00:15:55.849Z,100.00
2022-08-08T00:18:29.168Z,100.00
2022-08-08T00:21:00.681Z,100.00
2022-08-08T00:23:51.458Z,100.00
2022-08-08T00:26:33.272Z,100.00
2022-08-08T00:29:45.115Z,100.00
2022-08-08T00:32:34.237Z,100.00
2022-08-08T00:35:30.422Z,100.00
2022-08-08T00:38:06.983Z,100.00
2022-08-08T00:41:12.008Z,100.00
2022-08-08T00:43:59.290Z,100.00
2022-08-08T00:46:56.794Z,100.00
2022-08-08T00:52:38.937Z,100.00
2022-08-08T00:55:52.913Z,100.00
2022-08-08T00:58:39.232Z,100.00
2022-08-08T01:01:29.507Z,100.00
2022-08-08T01:04:20.597Z,100.00
2022-08-08T01:07:08.706Z,100.00
2022-08-08T01:10:06.813Z,100.00
2022-08-08T01:13:06.094Z,100.00
2022-08-08T01:40:14.738Z,100.00
2022-08-08T01:58:04.354Z,100.00
2022-08-08T02:00:48.482Z,100.00
2022-08-08T02:03:55.379Z,100.00
2022-08-08T02:10:02.421Z,100.00
2022-08-08T02:12:48.468Z,100.00
2022-08-08T02:15:34.967Z,100.00
2022-08-08T02:18:32.735Z,100.00
2022-08-08T02:21:21.288Z,100.00
2022-08-08T02:23:54.763Z,100.00
2022-08-08T02:26:31.097Z,100.00
2022-08-08T02:29:25.713Z,100.00
2022-08-08T02:32:22.827Z,100.00
2022-08-08T02:35:08.471Z,100.00
2022-08-08T02:37:58.363Z,100.00
2022-08-08T02:40:59.630Z,100.00
2022-08-08T02:44:38.945Z,100.00
2022-08-08T02:46:43.986Z,100.00
2022-08-08T02:49:50.635Z,100.00
2022-08-08T02:53:02.846Z,100.00
2022-08-08T02:59:05.747Z,100.00
2022-08-08T03:02:21.096Z,100.00
2022-08-08T03:08:26.848Z,100.00
2022-08-08T03:11:25.638Z,100.00
2022-08-08T03:16:01.579Z,100.00
2022-08-08T03:16:51.963Z,100.00
2022-08-08T03:19:27.128Z,100.00
2022-08-08T03:21:58.809Z,100.00
2022-08-08T03:24:31.707Z,100.00
2022-08-08T03:27:10.410Z,100.00
2022-08-08T03:29:55.580Z,100.00
2022-08-08T03:32:47.521Z,100.00
2022-08-08T03:35:22.236Z,100.00
2022-08-08T03:38:56.646Z,100.00
2022-08-08T03:40:52.551Z,100.00
2022-08-08T03:43:20.132Z,100.00
2022-08-08T03:46:05.066Z,100.00
2022-08-08T03:53:58.911Z,100.00
2022-08-08T03:56:33.368Z,100.00
2022-08-08T04:02:15.819Z,100.00
2022-08-08T04:04:30.826Z,100.00
2022-08-08T04:07:01.861Z,100.00
2022-08-08T04:09:59.002Z,100.00
2022-08-08T04:12:15.933Z,100.00
2022-08-08T04:14:45.279Z,100.00
2022-08-08T04:17:22.659Z,100.00
2022-08-08T04:19:58.624Z,100.00
2022-08-08T04:22:29.321Z,100.00
2022-08-08T04:28:01.362Z,100.00
2022-08-08T04:30:26.871Z,100.00
2022-08-08T04:32:54.660Z,100.00
2022-08-08T04:35:22.825Z,100.00
2022-08-08T04:40:30.413Z,100.00
2022-08-08T04:43:10.050Z,100.00
2022-08-08T04:45:37.409Z,100.00
2022-08-08T04:48:05.192Z,100.00
2022-08-08T04:50:40.142Z,100.00
2022-08-08T04:53:14.018Z,100.00
2022-08-08T04:58:38.149Z,100.00
2022-08-08T05:04:09.451Z,100.00
2022-08-08T05:06:31.842Z,100.00
2022-08-08T05:09:02.917Z,100.00
2022-08-08T05:11:39.640Z,100.00
2022-08-08T05:14:08.646Z,100.00
2022-08-08T05:16:52.411Z,100.00
2022-08-08T05:20:09.479Z,100.00
2022-08-08T05:22:12.711Z,100.00
2022-08-08T05:24:40.193Z,100.00
2022-08-08T05:27:08.054Z,100.00
2022-08-08T05:29:36.936Z,100.00
2022-08-08T05:32:08.961Z,100.00
2022-08-08T05:34:47.692Z,100.00
2022-08-08T05:40:09.265Z,100.00
2022-08-08T05:42:44.629Z,100.00
2022-08-08T05:45:25.684Z,100.00
2022-08-08T05:54:24.623Z,100.00
2022-08-08T05:59:05.142Z,100.00
2022-08-08T06:01:56.142Z,100.00
2022-08-08T06:04:27.064Z,100.00
2022-08-08T06:07:03.976Z,100.00
2022-08-08T06:10:00.533Z,100.00
2022-08-08T06:12:29.612Z,100.00
2022-08-08T06:15:16.065Z,100.00
2022-08-08T06:17:51.067Z,100.00
2022-08-08T06:20:29.922Z,100.00
2022-08-08T06:22:57.953Z,100.00
2022-08-08T06:26:35.307Z,100.00
2022-08-08T06:28:20.477Z,100.00
2022-08-08T06:31:01.912Z,100.00
2022-08-08T06:34:25.566Z,100.00
2022-08-08T06:36:53.852Z,100.00
2022-08-08T06:39:21.949Z,100.00
2022-08-08T06:41:57.076Z,100.00
2022-08-08T06:44:33.098Z,100.00
2022-08-08T06:47:02.334Z,100.00
2022-08-08T06:52:18.785Z,100.00
2022-08-08T06:57:29.487Z,100.00
2022-08-08T07:02:53.856Z,100.00
2022-08-08T07:08:21.604Z,100.00
2022-08-08T07:11:01.430Z,100.00
2022-08-08T07:13:37.238Z,100.00
2022-08-08T07:16:15.666Z,100.00
2022-08-08T07:19:07.191Z,100.00
2022-08-08T07:24:54.183Z,100.00
2022-08-08T07:27:35.329Z,100.00
2022-08-08T07:30:16.803Z,100.00
2022-08-08T07:35:35.789Z,100.00
2022-08-08T07:38:04.664Z,100.00
2022-08-08T07:40:37.970Z,100.00
2022-08-08T07:43:09.412Z,100.00
2022-08-08T07:46:04.839Z,100.00
2022-08-08T07:48:23.722Z,100.00
2022-08-08T07:51:04.519Z,100.00
2022-08-08T07:54:00.896Z,100.00
2022-08-08T08:02:36.910Z,100.00
2022-08-08T08:04:49.415Z,100.00
2022-08-08T08:07:22.582Z,100.00
2022-08-08T08:09:54.513Z,100.00
2022-08-08T08:12:35.077Z,100.00
2022-08-08T08:15:08.284Z,100.00
2022-08-08T08:17:47.927Z,100.00
2022-08-08T08:20:18.081Z,100.00
2022-08-08T08:22:44.663Z,100.00
2022-08-08T08:25:16.986Z,100.00
2022-08-08T08:33:25.491Z,100.00
2022-08-08T08:36:20.156Z,100.00
2022-08-08T08:38:49.473Z,100.00
2022-08-08T08:44:16.491Z,100.00
2022-08-08T08:46:58.835Z,100.00
2022-08-08T08:49:34.730Z,100.00
2022-08-08T08:52:03.825Z,100.00
2022-08-08T08:54:34.901Z,100.00
2022-08-08T08:57:03.547Z,100.00
2022-08-08T09:00:01.649Z,100.00
2022-08-08T09:02:31.235Z,100.00
2022-08-08T09:05:03.256Z,100.00
2022-08-08T09:10:17.776Z,100.00
2022-08-08T09:12:47.465Z,100.00
2022-08-08T09:21:58.546Z,76.97
2022-08-08T09:29:22.605Z,85.42
2022-08-08T09:32:12.104Z,93.65
2022-08-08T09:34:50.391Z,99.23
2022-08-08T09:37:39.537Z,100.00
2022-08-08T09:40:10.497Z,100.00
2022-08-08T09:42:51.567Z,100.00
2022-08-08T09:45:55.106Z,100.00
2022-08-08T09:48:43.001Z,100.00
2022-08-08T09:54:08.526Z,100.00
2022-08-08T09:56:46.359Z,100.00
2022-08-08T10:02:23.253Z,96.53
2022-08-08T10:04:58.924Z,80.27
2022-08-08T10:07:43.244Z,72.65
2022-08-08T10:12:53.742Z,75.49
2022-08-08T10:15:25.795Z,72.04
2022-08-08T10:18:05.285Z,64.41
2022-08-08T10:20:51.136Z,54.96
2022-08-08T10:23:44.095Z,54.18
2022-08-08T10:26:57.494Z,53.54
2022-08-08T10:29:59.217Z,49.15
2022-08-08T10:32:40.299Z,45.15
2022-08-08T10:35:20.431Z,46.78
2022-08-08T10:38:13.511Z,45.41
2022-08-08T10:43:23.791Z,52.43
2022-08-08T10:45:58.852Z,55.26
2022-08-08T10:51:31.041Z,56.00
2022-08-08T10:54:02.492Z,60.85
2022-08-08T10:56:36.336Z,64.40
2022-08-08T10:59:10.379Z,67.90
2022-08-08T11:01:46.441Z,72.55
2022-08-08T11:07:06.848Z,55.86
2022-08-08T11:09:34.284Z,53.34
2022-08-08T11:12:12.925Z,56.16
2022-08-08T11:15:05.796Z,62.81
2022-08-08T11:18:01.380Z,64.04
2022-08-08T11:20:29.554Z,61.01
2022-08-08T11:28:29.637Z,56.01
2022-08-08T11:31:00.194Z,61.35
2022-08-08T11:33:51.041Z,63.06
2022-08-08T11:36:16.521Z,66.97
2022-08-08T11:38:55.581Z,65.41
2022-08-08T11:41:33.928Z,63.12
2022-08-08T11:44:01.499Z,63.50
2022-08-08T11:51:51.887Z,61.32
2022-08-08T11:54:34.290Z,56.77
2022-08-08T12:00:07.582Z,50.21
2022-08-08T12:02:47.326Z,49.87
2022-08-08T12:05:14.477Z,48.63
2022-08-08T12:13:09.452Z,46.68
2022-08-08T12:18:30.503Z,46.11
2022-08-08T12:20:58.866Z,45.73
2022-08-08T12:23:43.003Z,45.59
2022-08-08T12:26:27.748Z,46.22
2022-08-08T12:29:03.268Z,44.95
2022-08-08T12:31:53.910Z,43.52
2022-08-08T12:37:39.922Z,50.13
2022-08-08T12:48:37.039Z,48.35
2022-08-08T12:51:05.635Z,45.26
2022-08-08T12:53:42.036Z,43.80
2022-08-08T12:56:23.804Z,42.42
2022-08-08T12:58:53.901Z,42.33
2022-08-08T13:01:24.469Z,43.05
2022-08-08T13:04:19.357Z,42.56
2022-08-08T13:07:11.851Z,43.20
2022-08-08T13:10:05.207Z,43.93
2022-08-08T13:12:46.598Z,43.94
2022-08-08T13:18:10.974Z,41.98
2022-08-08T13:23:36.612Z,46.64
2022-08-08T13:31:32.067Z,47.79
2022-08-08T13:34:11.784Z,47.62
2022-08-08T13:39:31.758Z,47.58
2022-08-08T13:42:01.417Z,48.24
2022-08-08T13:44:35.154Z,49.78
2022-08-08T13:47:06.996Z,50.74
2022-08-08T13:58:06.884Z,44.62
2022-08-08T14:06:33.412Z,46.41
2022-08-08T14:08:57.716Z,46.09
2022-08-08T14:11:30.677Z,45.88
2022-08-08T14:17:02.150Z,43.76
2022-08-08T14:19:57.149Z,43.24
2022-08-08T14:28:08.504Z,45.89
2022-08-08T14:30:50.015Z,44.39
2022-08-08T14:33:36.519Z,42.47
2022-08-08T14:36:05.915Z,42.17
2022-08-08T14:38:51.785Z,43.86
2022-08-08T14:41:53.312Z,43.21
2022-08-08T14:44:17.095Z,41.46
2022-08-08T14:46:46.431Z,41.92
2022-08-08T14:54:50.596Z,40.71
2022-08-08T15:05:42.794Z,39.64
2022-08-08T15:08:22.160Z,38.61
2022-08-08T15:11:00.573Z,38.82
2022-08-08T15:13:27.183Z,40.66
2022-08-08T15:16:14.992Z,41.95
2022-08-08T15:18:51.260Z,45.92
2022-08-08T15:24:03.176Z,49.96
2022-08-08T15:29:12.446Z,52.64
2022-08-08T15:34:31.695Z,47.66
2022-08-08T15:39:40.662Z,45.78
2022-08-08T15:44:55.855Z,49.70
2022-08-08T15:50:19.470Z,46.90
2022-08-08T15:52:47.071Z,47.93
2022-08-08T15:55:21.474Z,48.77
2022-08-08T15:57:48.054Z,50.58
2022-08-08T16:00:27.085Z,49.40
2022-08-08T16:02:55.683Z,48.05
2022-08-08T16:13:03.642Z,43.20
2022-08-08T16:16:17.930Z,43.35
2022-08-08T16:18:56.910Z,44.60
2022-08-08T16:24:13.673Z,45.81
2022-08-08T16:32:03.014Z,45.69
2022-08-08T16:34:50.295Z,45.55
2022-08-08T16:37:16.884Z,46.30
2022-08-08T16:40:02.278Z,46.47
2022-08-08T16:42:29.971Z,45.94
2022-08-08T16:50:20.004Z,45.98
2022-08-08T16:55:23.082Z,47.59
2022-08-08T16:55:52.124Z,46.54
2022-08-08T16:58:25.744Z,48.28
2022-08-08T17:00:55.001Z,48.14
2022-08-08T17:03:25.118Z,49.70
2022-08-08T17:08:52.511Z,50.61
2022-08-08T17:11:19.948Z,51.60
2022-08-08T17:16:28.551Z,51.96
2022-08-08T17:19:03.175Z,52.90
2022-08-08T17:29:56.600Z,57.22
2022-08-08T17:32:29.079Z,56.41
2022-08-08T17:35:55.370Z,57.93
2022-08-08T17:38:08.304Z,57.15
2022-08-08T17:40:37.722Z,57.35
2022-08-08T17:43:04.442Z,58.15
2022-08-08T17:45:32.883Z,59.08
2022-08-08T17:48:03.481Z,58.28
2022-08-08T17:50:42.064Z,60.07
2022-08-08T17:53:10.828Z,61.24
2022-08-08T17:56:05.085Z,62.51
2022-08-08T17:58:27.576Z,68.31
2022-08-08T18:00:57.184Z,76.66
2022-08-08T18:03:24.049Z,84.86
2022-08-08T18:08:25.349Z,95.17
2022-08-08T18:11:04.937Z,100.00
2022-08-08T18:13:35.096Z,100.00
2022-08-08T18:16:09.188Z,100.00
2022-08-08T18:18:39.130Z,100.00
2022-08-08T18:21:10.794Z,100.00
2022-08-08T18:26:40.473Z,100.00
2022-08-08T18:29:15.358Z,100.00
2022-08-08T18:31:42.144Z,100.00
2022-08-08T18:34:11.946Z,100.00
2022-08-08T18:36:54.859Z,100.00
2022-08-08T18:39:28.541Z,100.00
2022-08-08T18:42:03.286Z,100.00
2022-08-08T18:44:33.061Z,100.00
2022-08-08T18:47:03.319Z,100.00
2022-08-08T18:49:32.367Z,100.00
2022-08-08T18:52:08.667Z,100.00
2022-08-08T18:54:45.553Z,100.00
2022-08-08T19:00:10.677Z,100.00
2022-08-08T19:02:56.869Z,100.00
2022-08-08T19:05:30.675Z,100.00
2022-08-08T19:08:34.144Z,100.00
2022-08-08T19:11:02.172Z,100.00
2022-08-08T19:13:38.243Z,100.00
2022-08-08T19:16:19.269Z,100.00
2022-08-08T19:18:53.097Z,100.00
2022-08-08T19:21:32.917Z,100.00
2022-08-08T19:23:59.834Z,100.00
2022-08-08T19:26:31.015Z,100.00
2022-08-08T19:28:59.555Z,100.00
2022-08-08T19:31:31.904Z,100.00
2022-08-08T19:34:36.025Z,100.00
2022-08-08T19:36:55.034Z,100.00
2022-08-08T19:39:22.929Z,100.00
2022-08-08T19:41:50.445Z,100.00
2022-08-08T19:44:42.439Z,100.00
2022-08-08T19:47:04.453Z,100.00
2022-08-08T19:49:36.692Z,100.00
2022-08-08T19:52:06.104Z,100.00
2022-08-08T19:54:33.643Z,100.00
2022-08-08T19:57:04.170Z,100.00
2022-08-08T19:59:35.423Z,100.00
2022-08-08T20:02:04.181Z,100.00
2022-08-08T20:04:33.206Z,100.00
2022-08-08T20:08:27.097Z,100.00
2022-08-08T20:09:55.456Z,100.00
2022-08-08T20:12:32.290Z,100.00
2022-08-08T20:15:02.689Z,100.00
2022-08-08T20:17:41.985Z,100.00
2022-08-08T20:20:11.119Z,100.00
2022-08-08T20:22:40.679Z,100.00
2022-08-08T20:25:14.374Z,100.00
2022-08-08T20:27:50.263Z,100.00
2022-08-08T20:30:53.096Z,100.00
2022-08-08T20:33:18.489Z,100.00
2022-08-08T20:35:58.471Z,100.00
2022-08-08T20:38:32.229Z,100.00
2022-08-08T20:43:49.397Z,100.00
2022-08-08T20:46:20.810Z,100.00
2022-08-08T20:48:49.103Z,100.00
2022-08-08T20:53:59.887Z,100.00
2022-08-08T20:56:35.823Z,100.00
2022-08-08T20:59:05.854Z,100.00
2022-08-08T21:01:33.641Z,100.00
2022-08-08T21:04:23.167Z,100.00
2022-08-08T21:06:53.288Z,100.00
2022-08-08T21:09:21.639Z,100.00
2022-08-08T21:11:51.450Z,100.00
2022-08-08T21:14:30.433Z,100.00
2022-08-08T21:17:03.220Z,100.00
2022-08-08T21:19:44.418Z,100.00
2022-08-08T21:22:14.301Z,100.00
2022-08-08T21:24:42.116Z,100.00
2022-08-08T21:28:05.179Z,100.00
2022-08-08T21:30:17.847Z,100.00
2022-08-08T21:32:52.113Z,100.00
2022-08-08T21:36:15.142Z,100.00
2022-08-08T21:38:08.478Z,100.00
2022-08-08T21:40:55.887Z,100.00
2022-08-08T21:43:33.432Z,100.00
2022-08-08T21:48:00.588Z,100.00
2022-08-08T21:49:12.515Z,100.00
2022-08-08T21:54:53.640Z,100.00
2022-08-08T21:57:11.819Z,100.00
2022-08-08T22:00:02.276Z,100.00
2022-08-08T22:02:25.698Z,100.00
2022-08-08T22:04:55.725Z,100.00
2022-08-08T22:07:26.102Z,100.00
2022-08-08T22:10:09.196Z,100.00
2022-08-08T22:12:36.278Z,100.00
2022-08-08T22:15:04.285Z,100.00
2022-08-08T22:17:41.532Z,100.00
2022-08-08T22:20:18.807Z,100.00
2022-08-08T22:26:20.039Z,100.00
2022-08-08T22:29:05.016Z,100.00
2022-08-08T22:31:08.039Z,100.00
2022-08-08T22:34:13.772Z,100.00
2022-08-08T22:36:32.253Z,100.00
2022-08-08T22:39:01.145Z,100.00
2022-08-08T22:41:33.518Z,100.00
2022-08-08T22:44:06.018Z,100.00
2022-08-08T22:46:34.442Z,100.00
2022-08-08T22:49:06.074Z,100.00
2022-08-08T22:51:35.003Z,100.00
2022-08-08T22:54:32.638Z,100.00
2022-08-08T22:56:55.393Z,100.00
2022-08-08T22:59:21.974Z,100.00
2022-08-08T23:02:02.400Z,100.00
2022-08-08T23:04:33.541Z,100.00
2022-08-08T23:07:03.055Z,100.00
2022-08-08T23:09:31.070Z,100.00
2022-08-08T23:12:28.047Z,100.00
2022-08-08T23:14:53.536Z,100.00
2022-08-08T23:17:30.067Z,100.00
2022-08-08T23:19:56.789Z,100.00
2022-08-08T23:22:23.535Z,100.00
2022-08-08T23:24:50.735Z,100.00
2022-08-08T23:27:37.529Z,100.00
2022-08-08T23:30:09.474Z,100.00
2022-08-08T23:32:36.156Z,100.00
2022-08-08T23:35:12.666Z,100.00
2022-08-08T23:38:01.919Z,100.00
2022-08-08T23:40:30.317Z,100.00
2022-08-08T23:43:02.840Z,100.00
2022-08-08T23:49:04.028Z,100.00
2022-08-08T23:49:04.763Z,100.00
2022-08-08T23:51:12.695Z,100.00
2022-08-08T23:54:38.969Z,100.00
2022-08-08T23:56:52.181Z,100.00
2022-08-08T23:59:20.163Z,100.00
